Terminal Aerodrome Forecast
Issued by NWS Wilmington, OH

Home | Current Version | Previous Version | Text Only | Print | Product List | Glossary On
Versions: 1 2 3 4 5 6 7 8 9 10 11 12 13 14 15 16 17 18 19 20 21 22 23 24 25 26 27 28 29 30 31 32
000
FTUS41 KILN 172332
TAFDAY
TAF
KDAY 172332Z 1800/1824 21008KT 1SM -RA BR OVC004
     FM180100 24010KT 1SM -SNDZ BR OVC003
     FM180400 27010KT 2SM BR VCSH OVC003
     FM180600 28008KT P6SM OVC006
     FM181200 29005KT P6SM SCT010
     FM181500 16008KT P6SM SCT250=

USA.gov is the U.S. government's official web portal to all federal, state and local government web resources and services.